Kearneysville, West Virginia
Current Conditions -  °F | °C
As of 7:16 PM on Sunday 23 Nov 2014 (Local Time) from KMRB Reporting Station
Overcast Overcast  
Wind Chill: 11°   Ceiling: 2900
Heat Index: 11°   Visibility: 10mi
Dew Point: -1°   Wind: 3mph
Humidity: 43%   Direction: 120°ESE
Pressure: 29.98"   Gusts: NA
Location:  39.39°N, 77.89°W
Report Text: KMRB 240016Z AUTO 12003KT 10SM BKN029 OVC036 11/M01 A2998 RMK AO2 T01111011 TSNO
Loading
Personal Weather Stations






























Interactive Weather Map New forecast layout! Learn more

10-Day Weather Forecast

Advertisements
Track Severe Weather on mobile